createdAt,value
2016-04-13T00:00:24.535Z,1002.56
2016-04-13T00:01:24.522Z,1002.54
2016-04-13T00:02:24.493Z,1002.53
2016-04-13T00:03:24.480Z,1002.52
2016-04-13T00:04:24.468Z,1002.51
2016-04-13T00:05:24.454Z,1002.53
2016-04-13T00:06:24.426Z,1002.55
2016-04-13T00:07:24.412Z,1002.57
2016-04-13T00:08:24.404Z,1002.57
2016-04-13T00:09:24.376Z,1002.6
2016-04-13T00:10:24.362Z,1002.65
2016-04-13T00:11:24.350Z,1002.63
2016-04-13T00:12:24.322Z,1002.6
2016-04-13T00:13:24.308Z,1002.66
2016-04-13T00:14:24.295Z,1002.64
2016-04-13T00:15:24.283Z,1002.62
2016-04-13T00:16:24.253Z,1002.62
2016-04-13T00:17:24.256Z,1002.59
2016-04-13T00:18:24.228Z,1002.57
2016-04-13T00:19:24.355Z,1002.68
2016-04-13T00:20:24.187Z,1002.66
2016-04-13T00:21:24.175Z,1002.65
2016-04-13T00:22:24.160Z,1002.63
2016-04-13T00:23:24.148Z,1002.64
2016-04-13T00:24:24.119Z,1002.68
2016-04-13T00:25:24.107Z,1002.62
2016-04-13T00:26:24.094Z,1002.67
2016-04-13T00:27:24.471Z,1002.66
2016-04-13T00:28:24.052Z,1002.66
2016-04-13T00:29:24.039Z,1002.66
2016-04-13T00:30:24.026Z,1002.68
2016-04-13T00:31:24.013Z,1002.6
2016-04-13T00:32:23.985Z,1002.62
2016-04-13T00:33:23.971Z,1002.63
2016-04-13T00:34:23.959Z,1002.59
2016-04-13T00:35:24.430Z,1002.58
2016-04-13T00:36:23.917Z,1002.53
2016-04-13T00:37:23.904Z,1002.49
2016-04-13T00:38:23.891Z,1002.51
2016-04-13T00:39:23.862Z,1002.49
2016-04-13T00:40:23.851Z,1002.43
2016-04-13T00:41:23.837Z,1002.45
2016-04-13T00:42:23.824Z,1002.36
2016-04-13T00:43:24.451Z,1002.36
2016-04-13T00:44:23.783Z,1002.37
2016-04-13T00:45:23.770Z,1002.36
2016-04-13T00:46:23.757Z,1002.38
2016-04-13T00:47:23.744Z,1002.41
2016-04-13T00:48:23.715Z,1002.39
2016-04-13T00:49:23.703Z,1002.38
2016-04-13T00:50:23.689Z,1002.38
2016-04-13T00:51:23.660Z,1002.35
2016-04-13T00:52:23.647Z,1002.34
2016-04-13T00:53:23.635Z,1002.35
2016-04-13T00:54:23.622Z,1002.35
2016-04-13T00:55:23.593Z,1002.36
2016-04-13T00:56:23.596Z,1002.37
2016-04-13T00:57:23.568Z,1002.34
2016-04-13T00:58:23.538Z,1002.36
2016-04-13T00:59:24.432Z,1002.32
2016-04-13T01:00:23.513Z,1002.36
2016-04-13T01:01:23.499Z,1002.39
2016-04-13T01:02:23.471Z,1002.39
2016-04-13T01:03:23.459Z,1002.38
2016-04-13T01:04:23.445Z,1002.41
2016-04-13T01:05:23.432Z,1002.38
2016-04-13T01:06:23.404Z,1002.33
2016-04-13T01:07:23.688Z,1002.35
2016-04-13T01:08:23.379Z,1002.35
2016-04-13T01:09:23.351Z,1002.3
2016-04-13T01:10:23.353Z,1002.31
2016-04-13T01:11:23.323Z,1002.27
2016-04-13T01:12:23.316Z,1002.28
2016-04-13T01:13:23.286Z,1002.26
2016-04-13T01:14:23.273Z,1002.3
2016-04-13T01:15:23.713Z,1002.3
2016-04-13T01:16:23.244Z,1002.3
2016-04-13T01:17:23.216Z,1002.29
2016-04-13T01:18:23.203Z,1002.28
2016-04-13T01:19:23.190Z,1002.28
2016-04-13T01:20:23.177Z,1002.28
2016-04-13T01:21:23.149Z,1002.25
2016-04-13T01:22:23.140Z,1002.28
2016-04-13T01:23:23.111Z,1002.29
2016-04-13T01:24:23.098Z,1002.31
2016-04-13T01:25:23.086Z,1002.27
2016-04-13T01:26:23.072Z,1002.25
2016-04-13T01:27:23.044Z,1002.28
2016-04-13T01:28:23.031Z,1002.25
2016-04-13T01:29:23.018Z,1002.27
2016-04-13T01:30:23.005Z,1002.23
2016-04-13T01:31:22.977Z,1002.26
2016-04-13T01:32:22.963Z,1002.23
2016-04-13T01:33:22.951Z,1002.22
2016-04-13T01:34:22.922Z,1002.16
2016-04-13T01:35:22.909Z,1002.13
2016-04-13T01:36:22.896Z,1002.16
2016-04-13T01:37:22.882Z,1002.14
2016-04-13T01:38:22.870Z,1002.09
2016-04-13T01:39:22.842Z,1002.08
2016-04-13T01:40:22.829Z,1002.1
2016-04-13T01:41:22.816Z,1002.1
2016-04-13T01:42:22.803Z,1002.11
2016-04-13T01:43:22.774Z,1002.11
2016-04-13T01:44:22.762Z,1002.17
2016-04-13T01:45:22.734Z,1002.23
2016-04-13T01:46:22.720Z,1002.2
2016-04-13T01:47:22.707Z,1002.24
2016-04-13T01:48:22.695Z,1002.25
2016-04-13T01:49:22.681Z,1002.24
2016-04-13T01:50:22.653Z,1002.23
2016-04-13T01:51:22.639Z,1002.18
2016-04-13T01:52:22.627Z,1002.22
2016-04-13T01:53:22.598Z,1002.23
2016-04-13T01:54:22.585Z,1002.27
2016-04-13T01:55:22.583Z,1002.32
2016-04-13T01:56:22.612Z,1002.36
2016-04-13T01:57:22.627Z,1002.36
2016-04-13T01:58:22.659Z,1002.39
2016-04-13T01:59:22.687Z,1002.44
2016-04-13T02:00:22.711Z,1002.5
2016-04-13T02:01:22.697Z,1002.53
2016-04-13T02:02:22.700Z,1002.52
2016-04-13T02:03:22.687Z,1002.58
2016-04-13T02:04:22.689Z,1002.59
2016-04-13T02:05:22.689Z,1002.61
2016-04-13T02:06:22.682Z,1002.6
2016-04-13T02:07:22.674Z,1002.67
2016-04-13T02:08:22.651Z,1002.61
2016-04-13T02:09:22.675Z,1002.62
2016-04-13T02:10:22.634Z,1002.62
2016-04-13T02:11:22.624Z,1002.58
2016-04-13T02:12:22.597Z,1002.62
2016-04-13T02:13:22.586Z,1002.68
2016-04-13T02:14:22.576Z,1002.73
2016-04-13T02:15:22.563Z,1002.8
2016-04-13T02:16:22.536Z,1002.76
2016-04-13T02:17:22.525Z,1002.83
2016-04-13T02:18:22.512Z,1002.87
2016-04-13T02:19:22.484Z,1002.9
2016-04-13T02:20:22.471Z,1002.92
2016-04-13T02:21:22.584Z,1002.92
2016-04-13T02:22:22.447Z,1002.92
2016-04-13T02:23:22.465Z,1002.9
2016-04-13T02:24:22.406Z,1002.89
2016-04-13T02:25:22.393Z,1002.94
2016-04-13T02:26:22.365Z,1002.94
2016-04-13T02:27:22.367Z,1002.93
2016-04-13T02:28:22.339Z,1002.93
2016-04-13T02:29:22.326Z,1002.92
2016-04-13T02:30:22.298Z,1002.95
2016-04-13T02:31:22.285Z,1002.93
2016-04-13T02:32:22.272Z,1002.98
2016-04-13T02:33:22.259Z,1002.97
2016-04-13T02:34:22.231Z,1003
2016-04-13T02:35:22.217Z,1002.96
2016-04-13T02:36:22.267Z,1002.97
2016-04-13T02:37:22.176Z,1002.95
2016-04-13T02:38:22.163Z,1002.89
2016-04-13T02:39:22.150Z,1002.9
2016-04-13T02:40:22.137Z,1002.93
2016-04-13T02:41:22.108Z,1002.93
2016-04-13T02:42:22.096Z,1002.91
2016-04-13T02:43:22.083Z,1002.95
2016-04-13T02:44:22.069Z,1002.97
2016-04-13T02:45:22.040Z,1002.98
2016-04-13T02:46:22.027Z,1003
2016-04-13T02:47:22.016Z,1002.94
2016-04-13T02:48:21.987Z,1002.91
2016-04-13T02:49:21.974Z,1002.97
2016-04-13T02:50:21.960Z,1002.92
2016-04-13T02:51:21.979Z,1003.01
2016-04-13T02:52:21.935Z,1003.01
2016-04-13T02:53:21.906Z,1002.98
2016-04-13T02:54:21.878Z,1003.01
2016-04-13T02:55:21.864Z,1003
2016-04-13T02:56:21.851Z,1003.02
2016-04-13T02:57:21.839Z,1002.99
2016-04-13T02:58:21.825Z,1003.01
2016-04-13T02:59:21.797Z,1003.03
2016-04-13T03:00:21.784Z,1003
2016-04-13T03:01:21.772Z,1003.05
2016-04-13T03:02:21.759Z,1003.06
2016-04-13T03:03:21.730Z,1003.1
2016-04-13T03:04:21.717Z,1003.08
2016-04-13T03:05:21.704Z,1003.07
2016-04-13T03:06:21.786Z,1003.1
2016-04-13T03:07:21.663Z,1003.14
2016-04-13T03:08:21.650Z,1003.1
2016-04-13T03:09:21.636Z,1003.15
2016-04-13T03:10:21.608Z,1003.15
2016-04-13T03:11:21.595Z,1003.11
2016-04-13T03:12:21.566Z,1003.11
2016-04-13T03:13:21.554Z,1003.07
2016-04-13T03:14:21.540Z,1003.06
2016-04-13T03:15:21.528Z,1003.04
2016-04-13T03:16:21.500Z,1003.05
2016-04-13T03:17:21.486Z,1003.01
2016-04-13T03:18:21.474Z,1003.04
2016-04-13T03:19:21.460Z,1002.99
2016-04-13T03:20:21.432Z,1003.02
2016-04-13T03:21:21.419Z,1002.98
2016-04-13T03:22:21.391Z,1003.05
2016-04-13T03:23:21.377Z,1003.05
2016-04-13T03:24:21.364Z,1003.03
2016-04-13T03:25:21.351Z,1003.01
2016-04-13T03:26:21.339Z,1002.98
2016-04-13T03:27:21.325Z,1002.97
2016-04-13T03:28:21.297Z,1002.93
2016-04-13T03:29:21.284Z,1002.95
2016-04-13T03:30:21.256Z,1002.9
2016-04-13T03:31:21.243Z,1002.89
2016-04-13T03:32:21.230Z,1002.89
2016-04-13T03:33:21.217Z,1002.89
2016-04-13T03:34:21.189Z,1002.86
2016-04-13T03:35:21.175Z,1002.9
2016-04-13T03:36:21.162Z,1002.92
2016-04-13T03:37:21.150Z,1002.89
2016-04-13T03:38:21.121Z,1002.88
2016-04-13T03:39:21.108Z,1002.8
2016-04-13T03:40:21.085Z,1002.85
2016-04-13T03:41:21.087Z,1002.85
2016-04-13T03:42:21.058Z,1002.81
2016-04-13T03:43:21.029Z,1002.79
2016-04-13T03:44:21.017Z,1002.74
2016-04-13T03:45:21.004Z,1002.74
2016-04-13T03:46:20.976Z,1002.72
2016-04-13T03:47:20.962Z,1002.7
2016-04-13T03:48:20.949Z,1002.75
2016-04-13T03:49:20.937Z,1002.75
2016-04-13T03:50:20.907Z,1002.78
2016-04-13T03:51:20.895Z,1002.77
2016-04-13T03:52:20.882Z,1002.73
2016-04-13T03:53:20.853Z,1002.72
2016-04-13T03:54:20.950Z,1002.72
2016-04-13T03:55:20.828Z,1002.68
2016-04-13T03:56:20.799Z,1002.74
2016-04-13T03:57:20.786Z,1002.72
2016-04-13T03:58:20.773Z,1002.74
2016-04-13T03:59:20.761Z,1002.77
2016-04-13T04:00:20.748Z,1002.71
2016-04-13T04:01:20.719Z,1002.72
2016-04-13T04:02:20.956Z,1002.75
2016-04-13T04:03:20.692Z,1002.7
2016-04-13T04:04:20.664Z,1002.67
2016-04-13T04:05:20.652Z,1002.66
2016-04-13T04:06:20.638Z,1002.62
2016-04-13T04:07:20.610Z,1002.6
2016-04-13T04:08:20.597Z,1002.59
2016-04-13T04:09:20.584Z,1002.58
2016-04-13T04:10:20.961Z,1002.62
2016-04-13T04:11:20.543Z,1002.61
2016-04-13T04:12:20.530Z,1002.61
2016-04-13T04:13:20.517Z,1002.63
2016-04-13T04:14:20.505Z,1002.62
2016-04-13T04:15:20.475Z,1002.6
2016-04-13T04:16:20.463Z,1002.62
2016-04-13T04:17:20.449Z,1002.66
2016-04-13T04:18:20.983Z,1002.67
2016-04-13T04:19:20.408Z,1002.64
2016-04-13T04:20:20.395Z,1002.62
2016-04-13T04:21:20.366Z,1002.65
2016-04-13T04:22:20.353Z,1002.64
2016-04-13T04:23:20.340Z,1002.61
2016-04-13T04:24:20.328Z,1002.64
2016-04-13T04:25:20.299Z,1002.6
2016-04-13T04:26:20.989Z,1002.6
2016-04-13T04:27:20.273Z,1002.59
2016-04-13T04:28:20.260Z,1002.59
2016-04-13T04:29:20.232Z,1002.59
2016-04-13T04:30:20.219Z,1002.62
2016-04-13T04:31:20.206Z,1002.62
2016-04-13T04:32:20.193Z,1002.64
2016-04-13T04:33:20.165Z,1002.59
2016-04-13T04:34:20.995Z,1002.6
2016-04-13T04:35:20.123Z,1002.6
2016-04-13T04:36:20.110Z,1002.61
2016-04-13T04:37:20.097Z,1002.6
2016-04-13T04:38:20.084Z,1002.58
2016-04-13T04:39:20.055Z,1002.6
2016-04-13T04:40:20.042Z,1002.58
2016-04-13T04:41:20.030Z,1002.55
2016-04-13T04:42:20.252Z,1002.58
2016-04-13T04:43:19.989Z,1002.53
2016-04-13T04:44:19.975Z,1002.52
2016-04-13T04:45:19.947Z,1002.5
2016-04-13T04:46:19.933Z,1002.53
2016-04-13T04:47:19.921Z,1002.48
2016-04-13T04:48:19.907Z,1002.5
2016-04-13T04:49:19.879Z,1002.5
2016-04-13T04:50:20.273Z,1002.5
2016-04-13T04:51:19.854Z,1002.49
2016-04-13T04:52:19.824Z,1002.51
2016-04-13T04:53:19.827Z,1002.47
2016-04-13T04:54:19.798Z,1002.44
2016-04-13T04:55:19.770Z,1002.4
2016-04-13T04:56:19.757Z,1002.44
2016-04-13T04:57:19.745Z,1002.41
2016-04-13T04:58:19.732Z,1002.38
2016-04-13T04:59:19.704Z,1002.39
2016-04-13T05:00:19.690Z,1002.37
2016-04-13T05:01:19.678Z,1002.34
2016-04-13T05:02:19.664Z,1002.35
2016-04-13T05:03:19.636Z,1002.36
2016-04-13T05:04:19.623Z,1002.32
2016-04-13T05:05:19.609Z,1002.31
2016-04-13T05:06:19.581Z,1002.36
2016-04-13T05:07:19.569Z,1002.37
2016-04-13T05:08:19.555Z,1002.4
2016-04-13T05:09:19.527Z,1002.42
2016-04-13T05:10:19.530Z,1002.43
2016-04-13T05:11:19.501Z,1002.44
2016-04-13T05:12:19.488Z,1002.44
2016-04-13T05:13:19.460Z,1002.44
2016-04-13T05:14:19.446Z,1002.42
2016-04-13T05:15:19.433Z,1002.51
2016-04-13T05:16:19.404Z,1002.48
2016-04-13T05:17:19.407Z,1002.5
2016-04-13T05:18:19.379Z,1002.52
2016-04-13T05:19:19.366Z,1002.45
2016-04-13T05:20:19.354Z,1002.43
2016-04-13T05:21:19.324Z,1002.46
2016-04-13T05:22:19.313Z,1002.47
2016-04-13T05:23:19.298Z,1002.46
2016-04-13T05:24:19.285Z,1002.46
2016-04-13T05:25:19.257Z,1002.47
2016-04-13T05:26:19.245Z,1002.47
2016-04-13T05:27:19.232Z,1002.47
2016-04-13T05:28:19.218Z,1002.53
2016-04-13T05:29:19.190Z,1002.55
2016-04-13T05:30:19.162Z,1002.58
2016-04-13T05:31:19.148Z,1002.59
2016-04-13T05:32:19.136Z,1002.54
2016-04-13T05:33:19.122Z,1002.57
2016-04-13T05:34:19.110Z,1002.52
2016-04-13T05:35:19.081Z,1002.5
2016-04-13T05:36:19.068Z,1002.53
2016-04-13T05:37:19.055Z,1002.51
2016-04-13T05:38:19.027Z,1002.47
2016-04-13T05:39:19.013Z,1002.46
2016-04-13T05:40:19.001Z,1002.45
2016-04-13T05:41:18.988Z,1002.44
2016-04-13T05:42:18.959Z,1002.45
2016-04-13T05:43:18.946Z,1002.34
2016-04-13T05:44:18.933Z,1002.36
2016-04-13T05:45:18.921Z,1002.36
2016-04-13T05:46:18.891Z,1002.33
2016-04-13T05:47:18.879Z,1002.36
2016-04-13T05:48:18.866Z,1002.3
2016-04-13T05:49:18.837Z,1002.32
2016-04-13T05:50:18.824Z,1002.31
2016-04-13T05:51:18.812Z,1002.28
2016-04-13T05:52:18.798Z,1002.26
2016-04-13T05:53:18.770Z,1002.26
2016-04-13T05:54:18.758Z,1002.21
2016-04-13T05:55:18.744Z,1002.21
2016-04-13T05:56:18.715Z,1002.18
2016-04-13T05:57:18.703Z,1002.19
2016-04-13T05:58:18.690Z,1002.17
2016-04-13T05:59:18.662Z,1002.18
2016-04-13T06:00:18.648Z,1002.13
2016-04-13T06:01:18.635Z,1002.13
2016-04-13T06:02:18.623Z,1002.15
2016-04-13T06:03:18.594Z,1002.09
2016-04-13T06:04:18.581Z,1002.14
2016-04-13T06:05:18.567Z,1002.15
2016-04-13T06:06:18.540Z,1002.16
2016-04-13T06:07:18.526Z,1002.15
2016-04-13T06:08:18.514Z,1002.11
2016-04-13T06:09:18.501Z,1002.1
2016-04-13T06:10:18.472Z,1002.15
2016-04-13T06:11:18.475Z,1002.13
2016-04-13T06:12:18.447Z,1002.12
2016-04-13T06:13:18.434Z,1002.17
2016-04-13T06:14:18.405Z,1002.15
2016-04-13T06:15:18.391Z,1002.16
2016-04-13T06:16:18.363Z,1002.16
2016-04-13T06:17:18.350Z,1002.16
2016-04-13T06:18:18.337Z,1002.14
2016-04-13T06:19:18.324Z,1002.16
2016-04-13T06:20:18.311Z,1002.16
2016-04-13T06:21:18.283Z,1002.11
2016-04-13T06:22:18.270Z,1002.14
2016-04-13T06:23:18.242Z,1002.11
2016-04-13T06:24:18.229Z,1002.12
2016-04-13T06:25:18.215Z,1002.14
2016-04-13T06:26:18.202Z,1002.1
2016-04-13T06:27:18.174Z,1002.08
2016-04-13T06:28:18.162Z,1002.1
2016-04-13T06:29:18.148Z,1002.1
2016-04-13T06:30:18.120Z,1002.12
2016-04-13T06:31:18.107Z,1002.1
2016-04-13T06:32:18.093Z,1002.13
2016-04-13T06:33:18.065Z,1002.11
2016-04-13T06:34:18.052Z,1002.15
2016-04-13T06:35:18.039Z,1002.16
2016-04-13T06:36:18.026Z,1002.1
2016-04-13T06:37:17.997Z,1002.15
2016-04-13T06:38:17.985Z,1002.1
2016-04-13T06:39:17.972Z,1002.1
2016-04-13T06:40:17.943Z,1002.12
2016-04-13T06:41:17.931Z,1002.08
2016-04-13T06:42:17.917Z,1002.12
2016-04-13T06:43:17.905Z,1002.14
2016-04-13T06:44:17.875Z,1002.12
2016-04-13T06:45:17.878Z,1002.12
2016-04-13T06:46:17.850Z,1002.11
2016-04-13T06:47:17.838Z,1002.06
2016-04-13T06:48:17.808Z,1002.07
2016-04-13T06:49:17.796Z,1002.01
2016-04-13T06:50:17.782Z,1002.02
2016-04-13T06:51:17.770Z,1002.01
2016-04-13T06:52:17.741Z,1001.98
2016-04-13T06:53:17.729Z,1002.01
2016-04-13T06:54:17.715Z,1002.02
2016-04-13T06:55:17.702Z,1002.01
2016-04-13T06:56:17.674Z,1002.02
2016-04-13T06:57:17.677Z,1002
2016-04-13T06:58:17.648Z,1001.96
2016-04-13T06:59:17.620Z,1001.96
2016-04-13T07:00:17.623Z,1001.97
2016-04-13T07:01:17.593Z,1001.89
2016-04-13T07:02:17.581Z,1001.91
2016-04-13T07:03:17.568Z,1001.88
2016-04-13T07:04:17.539Z,1001.89
2016-04-13T07:05:17.526Z,1001.9
2016-04-13T07:06:17.514Z,1001.89
2016-04-13T07:07:17.500Z,1001.9
2016-04-13T07:08:17.487Z,1001.89
2016-04-13T07:09:17.458Z,1001.92
2016-04-13T07:10:17.445Z,1001.94
2016-04-13T07:11:17.433Z,1001.85
2016-04-13T07:12:17.404Z,1001.94
2016-04-13T07:13:17.391Z,1001.94
2016-04-13T07:14:17.378Z,1001.93
2016-04-13T07:15:17.366Z,1001.91
2016-04-13T07:16:17.353Z,1001.92
2016-04-13T07:17:17.339Z,1001.94
2016-04-13T07:18:17.311Z,1001.93
2016-04-13T07:19:17.299Z,1002
2016-04-13T07:20:17.285Z,1001.98
2016-04-13T07:21:17.273Z,1002.01
2016-04-13T07:22:17.244Z,1002.06
2016-04-13T07:23:17.231Z,1002.03
2016-04-13T07:24:17.219Z,1002.01
2016-04-13T07:25:17.205Z,1002.02
2016-04-13T07:26:17.177Z,1002.08
2016-04-13T07:27:17.163Z,1002.05
2016-04-13T07:28:17.151Z,1002.09
2016-04-13T07:29:17.185Z,1002.08
2016-04-13T07:30:17.109Z,1002.11
2016-04-13T07:31:17.096Z,1002.11
2016-04-13T07:32:17.083Z,1002.12
2016-04-13T07:33:17.070Z,1002.14
2016-04-13T07:34:17.042Z,1002.13
2016-04-13T07:35:17.028Z,1002.13
2016-04-13T07:36:17.016Z,1002.15
2016-04-13T07:37:17.159Z,1002.16
2016-04-13T07:38:16.975Z,1002.19
2016-04-13T07:39:16.962Z,1002.23
2016-04-13T07:40:16.948Z,1002.23
2016-04-13T07:41:16.936Z,1002.24
2016-04-13T07:42:16.907Z,1002.3
2016-04-13T07:43:16.894Z,1002.27
2016-04-13T07:44:16.881Z,1002.31
2016-04-13T07:45:17.164Z,1002.32
2016-04-13T07:46:16.855Z,1002.32
2016-04-13T07:47:16.827Z,1002.33
2016-04-13T07:48:16.813Z,1002.32
2016-04-13T07:49:16.800Z,1002.28
2016-04-13T07:50:16.788Z,1002.3
2016-04-13T07:51:16.775Z,1002.28
2016-04-13T07:52:16.747Z,1002.31
2016-04-13T07:53:17.186Z,1002.31
2016-04-13T07:54:16.721Z,1002.29
2016-04-13T07:55:16.707Z,1002.32
2016-04-13T07:56:16.679Z,1002.32
2016-04-13T07:57:16.666Z,1002.31
2016-04-13T07:58:16.653Z,1002.3
2016-04-13T07:59:16.625Z,1002.32
2016-04-13T08:00:16.612Z,1002.29
2016-04-13T08:01:17.193Z,1002.32
2016-04-13T08:02:16.586Z,1002.34
2016-04-13T08:03:16.557Z,1002.31
2016-04-13T08:04:16.545Z,1002.34
2016-04-13T08:05:16.531Z,1002.31
2016-04-13T08:06:16.518Z,1002.32
2016-04-13T08:07:16.584Z,1002.28
2016-04-13T08:08:16.481Z,1002.31
2016-04-13T08:09:17.219Z,1002.31
2016-04-13T08:10:16.439Z,1002.31
2016-04-13T08:11:16.427Z,1002.27
2016-04-13T08:12:16.414Z,1002.32
2016-04-13T08:13:16.401Z,1002.32
2016-04-13T08:14:16.373Z,1002.34
2016-04-13T08:15:16.360Z,1002.31
2016-04-13T08:16:16.347Z,1002.34
2016-04-13T08:17:16.475Z,1002.32
2016-04-13T08:18:16.305Z,1002.32
2016-04-13T08:19:16.293Z,1002.33
2016-04-13T08:20:16.280Z,1002.31
2016-04-13T08:21:16.266Z,1002.29
2016-04-13T08:22:16.379Z,1002.31
2016-04-13T08:23:16.225Z,1002.32
2016-04-13T08:24:16.213Z,1002.33
2016-04-13T08:25:16.497Z,1002.31
2016-04-13T08:26:16.171Z,1002.35
2016-04-13T08:27:16.158Z,1002.33
2016-04-13T08:28:16.145Z,1002.35
2016-04-13T08:29:16.116Z,1002.35
2016-04-13T08:30:16.104Z,1002.38
2016-04-13T08:31:16.090Z,1002.35
2016-04-13T08:32:16.078Z,1002.39
2016-04-13T08:33:16.517Z,1002.39
2016-04-13T08:34:16.036Z,1002.36
2016-04-13T08:35:16.039Z,1002.42
2016-04-13T08:36:16.009Z,1002.41
2016-04-13T08:37:15.982Z,1002.44
2016-04-13T08:38:15.969Z,1002.41
2016-04-13T08:39:15.956Z,1002.43
2016-04-13T08:40:15.942Z,1002.41
2016-04-13T08:41:15.914Z,1002.43
2016-04-13T08:42:15.901Z,1002.43
2016-04-13T08:43:15.888Z,1002.42
2016-04-13T08:44:15.875Z,1002.43
2016-04-13T08:45:15.862Z,1002.39
2016-04-13T08:46:15.833Z,1002.45
2016-04-13T08:47:15.821Z,1002.45
2016-04-13T08:48:15.792Z,1002.46
2016-04-13T08:49:15.780Z,1002.47
2016-04-13T08:50:15.767Z,1002.44
2016-04-13T08:51:15.754Z,1002.45
2016-04-13T08:52:15.788Z,1002.48
2016-04-13T08:53:15.712Z,1002.5
2016-04-13T08:54:15.699Z,1002.49
2016-04-13T08:55:15.686Z,1002.48
2016-04-13T08:56:15.674Z,1002.54
2016-04-13T08:57:15.646Z,1002.45
2016-04-13T08:58:15.632Z,1002.4
2016-04-13T08:59:15.619Z,1002.43
2016-04-13T09:00:15.606Z,1002.42
2016-04-13T09:01:15.577Z,1002.42
2016-04-13T09:02:15.565Z,1002.42
2016-04-13T09:03:15.551Z,1002.44
2016-04-13T09:04:15.523Z,1002.42
2016-04-13T09:05:15.509Z,1002.4
2016-04-13T09:06:15.497Z,1002.41
2016-04-13T09:07:15.547Z,1002.4
2016-04-13T09:08:15.471Z,1002.4
2016-04-13T09:09:15.442Z,1002.37
2016-04-13T09:10:15.430Z,1002.36
2016-04-13T09:11:15.417Z,1002.39
2016-04-13T09:12:15.388Z,1002.39
2016-04-13T09:13:15.375Z,1002.35
2016-04-13T09:14:15.362Z,1002.35
2016-04-13T09:15:15.350Z,1002.32
2016-04-13T09:16:15.321Z,1002.37
2016-04-13T09:17:15.308Z,1002.38
2016-04-13T09:18:15.294Z,1002.39
2016-04-13T09:19:15.282Z,1002.39
2016-04-13T09:20:15.253Z,1002.36
2016-04-13T09:21:15.241Z,1002.36
2016-04-13T09:22:15.228Z,1002.38
2016-04-13T09:23:15.199Z,1002.4
2016-04-13T09:24:15.186Z,1002.37
2016-04-13T09:25:15.173Z,1002.41
2016-04-13T09:26:15.160Z,1002.36
2016-04-13T09:27:15.147Z,1002.38
2016-04-13T09:28:15.135Z,1002.41
2016-04-13T09:29:15.107Z,1002.35
2016-04-13T09:30:15.093Z,1002.36
2016-04-13T09:31:15.065Z,1002.36
2016-04-13T09:32:15.051Z,1002.37
2016-04-13T09:33:15.038Z,1002.35
2016-04-13T09:34:15.009Z,1002.35
2016-04-13T09:35:14.997Z,1002.31
2016-04-13T09:36:14.984Z,1002.32
2016-04-13T09:37:14.970Z,1002.3
2016-04-13T09:38:14.959Z,1002.31
2016-04-13T09:39:14.945Z,1002.32
2016-04-13T09:40:14.917Z,1002.32
2016-04-13T09:41:14.903Z,1002.3
2016-04-13T09:42:14.875Z,1002.27
2016-04-13T09:43:14.878Z,1002.28
2016-04-13T09:44:14.849Z,1002.24
2016-04-13T09:45:14.836Z,1002.25
2016-04-13T09:46:14.808Z,1002.24
2016-04-13T09:47:14.794Z,1002.32
2016-04-13T09:48:14.782Z,1002.31
2016-04-13T09:49:14.769Z,1002.31
2016-04-13T09:50:14.741Z,1002.33
2016-04-13T09:51:14.744Z,1002.31
2016-04-13T09:52:14.714Z,1002.35
2016-04-13T09:53:14.702Z,1002.35
2016-04-13T09:54:14.681Z,1002.36
2016-04-13T09:55:14.666Z,1002.33
2016-04-13T09:56:14.641Z,1002.36
2016-04-13T09:57:14.629Z,1002.33
2016-04-13T09:58:14.647Z,1002.29
2016-04-13T09:59:14.604Z,1002.27
2016-04-13T10:00:14.599Z,1002.28
2016-04-13T10:01:14.568Z,1002.24
2016-04-13T10:02:14.539Z,1002.29
2016-04-13T10:03:14.527Z,1002.25
2016-04-13T10:04:14.521Z,1002.28
2016-04-13T10:05:14.492Z,1002.3
2016-04-13T10:06:14.479Z,1002.3
2016-04-13T10:07:14.465Z,1002.29
2016-04-13T10:08:14.453Z,1002.3
2016-04-13T10:09:14.439Z,1002.32
2016-04-13T10:10:14.411Z,1002.34
2016-04-13T10:11:14.398Z,1002.31
2016-04-13T10:12:14.370Z,1002.41
2016-04-13T10:13:14.575Z,1002.31
2016-04-13T10:14:14.750Z,1002.34
2016-04-13T10:15:15.659Z,1002.35
2016-04-13T10:16:16.833Z,1002.35
2016-04-13T10:17:14.290Z,1002.37
2016-04-13T10:18:14.277Z,1002.39
2016-04-13T10:19:14.264Z,1002.42
2016-04-13T10:20:14.251Z,1002.42
2016-04-13T10:21:14.222Z,1002.42
2016-04-13T10:22:14.225Z,1002.41
2016-04-13T10:23:14.197Z,1002.43
2016-04-13T10:24:14.183Z,1002.41
2016-04-13T10:25:14.155Z,1002.46
2016-04-13T10:26:14.158Z,1002.45
2016-04-13T10:27:14.129Z,1002.43
2016-04-13T10:28:14.116Z,1002.45
2016-04-13T10:29:14.088Z,1002.43
2016-04-13T10:30:14.082Z,1002.47
2016-04-13T10:31:14.069Z,1002.43
2016-04-13T10:32:14.040Z,1002.44
2016-04-13T10:33:14.043Z,1002.47
2016-04-13T10:34:14.014Z,1002.47
2016-04-13T10:35:14.001Z,1002.49
2016-04-13T10:36:13.973Z,1002.44
2016-04-13T10:37:13.960Z,1002.44
2016-04-13T10:38:13.945Z,1002.44
2016-04-13T10:39:13.932Z,1002.47
2016-04-13T10:40:13.904Z,1002.44
2016-04-13T10:41:13.890Z,1002.43
2016-04-13T10:42:13.878Z,1002.39
2016-04-13T10:43:13.865Z,1002.37
2016-04-13T10:44:13.853Z,1002.36
2016-04-13T10:45:13.823Z,1002.27
2016-04-13T10:46:13.810Z,1002.29
2016-04-13T10:47:13.797Z,1002.25
2016-04-13T10:48:13.769Z,1002.28
2016-04-13T10:49:13.772Z,1002.25
2016-04-13T10:50:13.743Z,1002.22
2016-04-13T10:51:13.730Z,1002.24
2016-04-13T10:52:13.716Z,1002.2
2016-04-13T10:53:13.688Z,1002.24
2016-04-13T10:54:13.675Z,1002.25
2016-04-13T10:55:16.007Z,1002.22
2016-04-13T10:56:19.838Z,1002.25
2016-04-13T10:57:15.683Z,1002.21
2016-04-13T10:58:21.593Z,1002.21
2016-04-13T10:59:15.158Z,1002.22
2016-04-13T11:00:13.754Z,1002.24
2016-04-13T11:01:21.094Z,1002.22
2016-04-13T11:02:15.721Z,1002.23
2016-04-13T11:03:18.111Z,1002.22
2016-04-13T11:04:15.641Z,1002.25
2016-04-13T11:05:25.656Z,1002.27
2016-04-13T11:06:16.135Z,1002.24
2016-04-13T11:07:13.699Z,1002.24
2016-04-13T11:08:14.327Z,1002.25
2016-04-13T11:09:13.877Z,1002.29
2016-04-13T11:10:34.709Z,1002.26
2016-04-13T11:11:24.984Z,1002.27
2016-04-13T11:12:30.648Z,1002.26
2016-04-13T11:13:24.156Z,1002.27
2016-04-13T11:14:34.288Z,1002.29
2016-04-13T11:15:46.313Z,1002.26
2016-04-13T11:17:00.021Z,1002.21
2016-04-13T11:18:17.171Z,1002.23
2016-04-13T11:19:36.254Z,1002.22
2016-04-13T11:20:31.587Z,1002.25
2016-04-13T11:21:34.043Z,1002.24
2016-04-13T11:22:31.265Z,1002.21
2016-04-13T11:23:31.160Z,1002.24
2016-04-13T11:24:31.148Z,1002.28
2016-04-13T11:25:31.135Z,1002.22
2016-04-13T11:26:31.107Z,1002.19
2016-04-13T11:27:31.094Z,1002.24
2016-04-13T11:28:31.082Z,1002.24
2016-04-13T11:29:31.055Z,1002.23
2016-04-13T11:30:31.042Z,1002.21
2016-04-13T11:31:31.044Z,1002.19
2016-04-13T11:32:31.015Z,1002.21
2016-04-13T11:33:31.003Z,1002.21
2016-04-13T11:34:30.974Z,1002.18
2016-04-13T11:35:30.961Z,1002.17
2016-04-13T11:36:30.949Z,1002.23
2016-04-13T11:37:30.935Z,1002.22
2016-04-13T11:38:30.938Z,1002.21
2016-04-13T11:39:30.893Z,1002.23
2016-04-13T11:40:30.896Z,1002.25
2016-04-13T11:41:30.868Z,1002.24
2016-04-13T11:42:30.854Z,1002.27
2016-04-13T11:43:30.842Z,1002.31
2016-04-13T11:44:30.813Z,1002.27
2016-04-13T11:45:30.815Z,1002.29
2016-04-13T11:46:30.788Z,1002.25
2016-04-13T11:47:30.774Z,1002.27
2016-04-13T11:48:30.762Z,1002.25
2016-04-13T11:49:30.734Z,1002.3
2016-04-13T11:50:30.720Z,1002.28
2016-04-13T11:51:30.722Z,1002.33
2016-04-13T11:52:30.694Z,1002.3
2016-04-13T11:53:30.681Z,1002.3
2016-04-13T11:54:30.653Z,1002.31
2016-04-13T11:55:30.640Z,1002.28
2016-04-13T11:56:30.627Z,1002.32
2016-04-13T11:57:30.614Z,1002.27
2016-04-13T11:58:30.600Z,1002.29
2016-04-13T11:59:30.572Z,1002.27
2016-04-13T12:00:30.575Z,1002.27
2016-04-13T12:01:30.547Z,1002.3
2016-04-13T12:02:30.533Z,1002.28
2016-04-13T12:03:30.505Z,1002.29
2016-04-13T12:04:30.492Z,1002.31
2016-04-13T12:05:30.480Z,1002.29
2016-04-13T12:06:30.466Z,1002.32
2016-04-13T12:07:30.438Z,1002.3
2016-04-13T12:08:30.425Z,1002.31
2016-04-13T12:09:30.413Z,1002.3